sensor_id;sensor_type;location;lat;lon;timestamp;P1;durP1;ratioP1;P2;durP2;ratioP2
72949;SDS011;62720;45.710;9.590;2022-10-22T00:02:03;16.93;;;9.93;;
72949;SDS011;62720;45.710;9.590;2022-10-22T00:04:30;16.98;;;8.68;;
72949;SDS011;62720;45.710;9.590;2022-10-22T00:06:55;19.55;;;9.88;;
72949;SDS011;62720;45.710;9.590;2022-10-22T00:09:20;16.33;;;9.77;;
72949;SDS011;62720;45.710;9.590;2022-10-22T00:11:45;16.33;;;9.40;;
72949;SDS011;62720;45.710;9.590;2022-10-22T00:14:11;15.65;;;9.38;;
72949;SDS011;62720;45.710;9.590;2022-10-22T00:16:36;16.50;;;9.75;;
72949;SDS011;62720;45.710;9.590;2022-10-22T00:19:01;18.25;;;9.57;;
72949;SDS011;62720;45.710;9.590;2022-10-22T00:21:27;20.25;;;8.82;;
72949;SDS011;62720;45.710;9.590;2022-10-22T00:23:53;16.08;;;9.45;;
72949;SDS011;62720;45.710;9.590;2022-10-22T00:26:19;16.38;;;9.55;;
72949;SDS011;62720;45.710;9.590;2022-10-22T00:28:44;17.58;;;9.10;;
72949;SDS011;62720;45.710;9.590;2022-10-22T00:31:09;15.18;;;9.73;;
72949;SDS011;62720;45.710;9.590;2022-10-22T00:33:35;17.63;;;9.15;;
72949;SDS011;62720;45.710;9.590;2022-10-22T00:36:01;16.45;;;8.93;;
72949;SDS011;62720;45.710;9.590;2022-10-22T00:38:26;12.47;;;8.40;;
72949;SDS011;62720;45.710;9.590;2022-10-22T00:40:51;14.90;;;9.23;;
72949;SDS011;62720;45.710;9.590;2022-10-22T00:43:17;16.08;;;8.82;;
72949;SDS011;62720;45.710;9.590;2022-10-22T00:45:43;16.75;;;8.73;;
72949;SDS011;62720;45.710;9.590;2022-10-22T00:50:38;14.63;;;8.25;;
72949;SDS011;62720;45.710;9.590;2022-10-22T00:53:05;14.85;;;8.50;;
72949;SDS011;62720;45.710;9.590;2022-10-22T00:55:32;15.90;;;8.52;;
72949;SDS011;62720;45.710;9.590;2022-10-22T00:57:57;17.40;;;8.80;;
72949;SDS011;62720;45.710;9.590;2022-10-22T01:00:24;14.63;;;8.20;;
72949;SDS011;62720;45.710;9.590;2022-10-22T01:02:49;17.00;;;9.07;;
72949;SDS011;62720;45.710;9.590;2022-10-22T01:05:15;16.92;;;8.32;;
72949;SDS011;62720;45.710;9.590;2022-10-22T01:07:42;14.02;;;8.88;;
72949;SDS011;62720;45.710;9.590;2022-10-22T01:10:11;18.30;;;8.82;;
72949;SDS011;62720;45.710;9.590;2022-10-22T01:15:32;14.65;;;9.07;;
72949;SDS011;62720;45.710;9.590;2022-10-22T01:18:12;15.38;;;8.57;;
72949;SDS011;62720;45.710;9.590;2022-10-22T01:20:49;15.98;;;8.45;;
72949;SDS011;62720;45.710;9.590;2022-10-22T01:31:10;16.13;;;9.18;;
72949;SDS011;62720;45.710;9.590;2022-10-22T01:33:37;18.65;;;8.32;;
72949;SDS011;62720;45.710;9.590;2022-10-22T01:36:03;14.10;;;8.68;;
72949;SDS011;62720;45.710;9.590;2022-10-22T01:38:28;19.27;;;8.10;;
72949;SDS011;62720;45.710;9.590;2022-10-22T01:40:54;16.92;;;8.90;;
72949;SDS011;62720;45.710;9.590;2022-10-22T01:43:20;15.32;;;9.10;;
72949;SDS011;62720;45.710;9.590;2022-10-22T01:45:58;17.33;;;9.18;;
72949;SDS011;62720;45.710;9.590;2022-10-22T01:56:32;15.63;;;9.35;;
72949;SDS011;62720;45.710;9.590;2022-10-22T01:59:16;16.85;;;8.73;;
72949;SDS011;62720;45.710;9.590;2022-10-22T02:01:58;18.30;;;9.85;;
72949;SDS011;62720;45.710;9.590;2022-10-22T02:04:29;17.77;;;9.05;;
72949;SDS011;62720;45.710;9.590;2022-10-22T02:06:58;17.85;;;9.35;;
72949;SDS011;62720;45.710;9.590;2022-10-22T02:09:25;17.52;;;10.02;;
72949;SDS011;62720;45.710;9.590;2022-10-22T02:11:52;18.90;;;9.52;;
72949;SDS011;62720;45.710;9.590;2022-10-22T02:14:18;27.00;;;10.43;;
72949;SDS011;62720;45.710;9.590;2022-10-22T02:16:44;20.55;;;9.85;;
72949;SDS011;62720;45.710;9.590;2022-10-22T02:19:23;18.33;;;9.10;;
72949;SDS011;62720;45.710;9.590;2022-10-22T02:21:49;17.25;;;9.73;;
72949;SDS011;62720;45.710;9.590;2022-10-22T02:24:15;16.25;;;9.10;;
72949;SDS011;62720;45.710;9.590;2022-10-22T02:26:42;17.20;;;9.20;;
72949;SDS011;62720;45.710;9.590;2022-10-22T02:31:34;15.23;;;8.90;;
72949;SDS011;62720;45.710;9.590;2022-10-22T02:34:10;15.88;;;9.00;;
72949;SDS011;62720;45.710;9.590;2022-10-22T02:36:38;18.35;;;8.68;;
72949;SDS011;62720;45.710;9.590;2022-10-22T02:39:04;15.60;;;8.32;;
72949;SDS011;62720;45.710;9.590;2022-10-22T02:41:30;14.73;;;8.40;;
72949;SDS011;62720;45.710;9.590;2022-10-22T02:43:56;14.85;;;7.22;;
72949;SDS011;62720;45.710;9.590;2022-10-22T02:46:21;18.83;;;8.70;;
72949;SDS011;62720;45.710;9.590;2022-10-22T02:48:47;16.30;;;8.85;;
72949;SDS011;62720;45.710;9.590;2022-10-22T02:51:12;14.75;;;7.82;;
72949;SDS011;62720;45.710;9.590;2022-10-22T02:53:38;17.70;;;8.98;;
72949;SDS011;62720;45.710;9.590;2022-10-22T02:56:03;13.40;;;8.63;;
72949;SDS011;62720;45.710;9.590;2022-10-22T02:58:28;15.95;;;8.43;;
72949;SDS011;62720;45.710;9.590;2022-10-22T03:00:54;15.93;;;8.33;;
72949;SDS011;62720;45.710;9.590;2022-10-22T03:03:19;14.90;;;8.47;;
72949;SDS011;62720;45.710;9.590;2022-10-22T03:05:44;20.13;;;8.85;;
72949;SDS011;62720;45.710;9.590;2022-10-22T03:08:09;17.95;;;8.45;;
72949;SDS011;62720;45.710;9.590;2022-10-22T03:10:35;12.93;;;8.10;;
72949;SDS011;62720;45.710;9.590;2022-10-22T03:13:00;13.57;;;7.30;;
72949;SDS011;62720;45.710;9.590;2022-10-22T03:15:25;18.25;;;9.15;;
72949;SDS011;62720;45.710;9.590;2022-10-22T03:17:50;14.80;;;8.47;;
72949;SDS011;62720;45.710;9.590;2022-10-22T03:20:16;13.95;;;8.02;;
72949;SDS011;62720;45.710;9.590;2022-10-22T03:22:41;16.17;;;9.00;;
72949;SDS011;62720;45.710;9.590;2022-10-22T03:25:08;16.27;;;8.85;;
72949;SDS011;62720;45.710;9.590;2022-10-22T03:27:34;15.50;;;7.90;;
72949;SDS011;62720;45.710;9.590;2022-10-22T03:30:00;17.55;;;9.00;;
72949;SDS011;62720;45.710;9.590;2022-10-22T03:32:26;16.92;;;9.05;;
72949;SDS011;62720;45.710;9.590;2022-10-22T03:34:52;15.20;;;8.95;;
72949;SDS011;62720;45.710;9.590;2022-10-22T03:37:17;16.27;;;9.37;;
72949;SDS011;62720;45.710;9.590;2022-10-22T03:39:43;16.13;;;8.10;;
72949;SDS011;62720;45.710;9.590;2022-10-22T03:42:08;17.25;;;9.15;;
72949;SDS011;62720;45.710;9.590;2022-10-22T03:44:34;16.80;;;9.15;;
72949;SDS011;62720;45.710;9.590;2022-10-22T03:47:00;17.30;;;9.38;;
72949;SDS011;62720;45.710;9.590;2022-10-22T03:49:25;16.52;;;9.25;;
72949;SDS011;62720;45.710;9.590;2022-10-22T03:51:51;16.07;;;8.27;;
72949;SDS011;62720;45.710;9.590;2022-10-22T03:54:16;16.00;;;9.40;;
72949;SDS011;62720;45.710;9.590;2022-10-22T03:56:41;17.73;;;9.85;;
72949;SDS011;62720;45.710;9.590;2022-10-22T03:59:06;16.23;;;8.57;;
72949;SDS011;62720;45.710;9.590;2022-10-22T04:01:31;16.03;;;8.77;;
72949;SDS011;62720;45.710;9.590;2022-10-22T04:03:57;16.10;;;9.53;;
72949;SDS011;62720;45.710;9.590;2022-10-22T04:06:22;18.45;;;9.77;;
72949;SDS011;62720;45.710;9.590;2022-10-22T04:08:48;19.23;;;9.43;;
72949;SDS011;62720;45.710;9.590;2022-10-22T04:11:13;16.63;;;10.10;;
72949;SDS011;62720;45.710;9.590;2022-10-22T04:13:39;18.20;;;10.40;;
72949;SDS011;62720;45.710;9.590;2022-10-22T04:18:32;20.15;;;11.48;;
72949;SDS011;62720;45.710;9.590;2022-10-22T04:20:58;18.73;;;10.43;;
72949;SDS011;62720;45.710;9.590;2022-10-22T04:23:23;15.27;;;9.93;;
72949;SDS011;62720;45.710;9.590;2022-10-22T04:25:48;18.20;;;10.80;;
72949;SDS011;62720;45.710;9.590;2022-10-22T04:28:13;23.23;;;10.83;;
72949;SDS011;62720;45.710;9.590;2022-10-22T04:30:39;24.27;;;12.07;;
72949;SDS011;62720;45.710;9.590;2022-10-22T04:33:04;20.13;;;11.35;;
72949;SDS011;62720;45.710;9.590;2022-10-22T04:35:29;22.97;;;11.03;;
72949;SDS011;62720;45.710;9.590;2022-10-22T04:37:54;17.73;;;11.03;;
72949;SDS011;62720;45.710;9.590;2022-10-22T04:40:20;19.30;;;10.48;;
72949;SDS011;62720;45.710;9.590;2022-10-22T04:42:45;20.13;;;10.85;;
72949;SDS011;62720;45.710;9.590;2022-10-22T04:45:10;17.80;;;11.03;;
72949;SDS011;62720;45.710;9.590;2022-10-22T04:47:35;20.57;;;10.50;;
72949;SDS011;62720;45.710;9.590;2022-10-22T04:50:00;19.45;;;11.38;;
72949;SDS011;62720;45.710;9.590;2022-10-22T04:52:26;23.13;;;10.80;;
72949;SDS011;62720;45.710;9.590;2022-10-22T04:54:51;21.07;;;11.73;;
72949;SDS011;62720;45.710;9.590;2022-10-22T04:57:16;17.43;;;10.63;;
72949;SDS011;62720;45.710;9.590;2022-10-22T04:59:41;21.40;;;11.23;;
72949;SDS011;62720;45.710;9.590;2022-10-22T05:02:06;23.00;;;11.50;;
72949;SDS011;62720;45.710;9.590;2022-10-22T05:04:32;16.42;;;10.25;;
72949;SDS011;62720;45.710;9.590;2022-10-22T05:06:57;19.13;;;11.20;;
72949;SDS011;62720;45.710;9.590;2022-10-22T05:09:22;21.27;;;10.93;;
72949;SDS011;62720;45.710;9.590;2022-10-22T05:11:48;20.70;;;11.43;;
72949;SDS011;62720;45.710;9.590;2022-10-22T05:14:21;17.17;;;10.65;;
72949;SDS011;62720;45.710;9.590;2022-10-22T05:16:46;19.65;;;11.32;;
72949;SDS011;62720;45.710;9.590;2022-10-22T05:19:19;22.60;;;10.90;;
72949;SDS011;62720;45.710;9.590;2022-10-22T05:21:45;18.27;;;10.85;;
72949;SDS011;62720;45.710;9.590;2022-10-22T05:24:10;19.52;;;10.40;;
72949;SDS011;62720;45.710;9.590;2022-10-22T05:26:35;17.13;;;9.55;;
72949;SDS011;62720;45.710;9.590;2022-10-22T05:29:01;19.73;;;9.47;;
72949;SDS011;62720;45.710;9.590;2022-10-22T05:31:26;17.50;;;10.33;;
72949;SDS011;62720;45.710;9.590;2022-10-22T05:33:53;15.77;;;9.65;;
72949;SDS011;62720;45.710;9.590;2022-10-22T05:36:19;20.02;;;10.15;;
72949;SDS011;62720;45.710;9.590;2022-10-22T05:38:44;17.42;;;10.38;;
72949;SDS011;62720;45.710;9.590;2022-10-22T05:41:10;19.20;;;10.13;;
72949;SDS011;62720;45.710;9.590;2022-10-22T05:43:36;16.40;;;10.20;;
72949;SDS011;62720;45.710;9.590;2022-10-22T05:46:03;17.65;;;9.90;;
72949;SDS011;62720;45.710;9.590;2022-10-22T05:48:28;17.70;;;11.02;;
72949;SDS011;62720;45.710;9.590;2022-10-22T05:50:54;20.95;;;11.52;;
72949;SDS011;62720;45.710;9.590;2022-10-22T05:53:20;20.50;;;11.57;;
72949;SDS011;62720;45.710;9.590;2022-10-22T05:55:45;16.52;;;10.07;;
72949;SDS011;62720;45.710;9.590;2022-10-22T05:58:11;18.23;;;10.52;;
72949;SDS011;62720;45.710;9.590;2022-10-22T06:00:37;20.52;;;11.60;;
72949;SDS011;62720;45.710;9.590;2022-10-22T06:03:03;20.75;;;11.75;;
72949;SDS011;62720;45.710;9.590;2022-10-22T06:05:28;20.67;;;11.60;;
72949;SDS011;62720;45.710;9.590;2022-10-22T06:07:53;22.20;;;10.95;;
72949;SDS011;62720;45.710;9.590;2022-10-22T06:10:20;16.52;;;10.20;;
72949;SDS011;62720;45.710;9.590;2022-10-22T06:12:45;20.67;;;11.35;;
72949;SDS011;62720;45.710;9.590;2022-10-22T06:15:12;18.40;;;10.98;;
72949;SDS011;62720;45.710;9.590;2022-10-22T06:17:38;19.15;;;11.05;;
72949;SDS011;62720;45.710;9.590;2022-10-22T06:20:03;16.67;;;10.30;;
72949;SDS011;62720;45.710;9.590;2022-10-22T06:22:29;24.23;;;11.23;;
72949;SDS011;62720;45.710;9.590;2022-10-22T06:24:54;18.98;;;10.90;;
72949;SDS011;62720;45.710;9.590;2022-10-22T06:27:19;18.63;;;9.73;;
72949;SDS011;62720;45.710;9.590;2022-10-22T06:29:44;16.17;;;10.37;;
72949;SDS011;62720;45.710;9.590;2022-10-22T06:32:10;22.00;;;11.27;;
72949;SDS011;62720;45.710;9.590;2022-10-22T06:34:35;15.13;;;9.80;;
72949;SDS011;62720;45.710;9.590;2022-10-22T06:37:00;21.87;;;11.03;;
72949;SDS011;62720;45.710;9.590;2022-10-22T06:39:25;20.17;;;11.70;;
72949;SDS011;62720;45.710;9.590;2022-10-22T06:41:51;16.40;;;10.10;;
72949;SDS011;62720;45.710;9.590;2022-10-22T06:44:17;21.00;;;10.48;;
72949;SDS011;62720;45.710;9.590;2022-10-22T06:46:42;20.98;;;11.05;;
72949;SDS011;62720;45.710;9.590;2022-10-22T06:49:09;18.55;;;10.10;;
72949;SDS011;62720;45.710;9.590;2022-10-22T06:51:35;15.18;;;8.45;;
72949;SDS011;62720;45.710;9.590;2022-10-22T06:54:00;19.63;;;10.03;;
72949;SDS011;62720;45.710;9.590;2022-10-22T06:56:26;19.50;;;10.90;;
72949;SDS011;62720;45.710;9.590;2022-10-22T06:58:53;20.40;;;12.95;;
72949;SDS011;62720;45.710;9.590;2022-10-22T07:01:19;20.73;;;12.93;;
72949;SDS011;62720;45.710;9.590;2022-10-22T07:03:45;18.05;;;11.73;;
72949;SDS011;62720;45.710;9.590;2022-10-22T07:06:11;17.30;;;10.57;;
72949;SDS011;62720;45.710;9.590;2022-10-22T07:08:37;17.63;;;10.43;;
72949;SDS011;62720;45.710;9.590;2022-10-22T07:11:10;19.13;;;10.30;;
72949;SDS011;62720;45.710;9.590;2022-10-22T07:13:35;16.67;;;10.00;;
72949;SDS011;62720;45.710;9.590;2022-10-22T07:16:01;15.35;;;9.50;;
72949;SDS011;62720;45.710;9.590;2022-10-22T07:18:26;15.68;;;9.50;;
72949;SDS011;62720;45.710;9.590;2022-10-22T07:20:52;17.48;;;9.57;;
72949;SDS011;62720;45.710;9.590;2022-10-22T07:23:17;16.87;;;9.60;;
72949;SDS011;62720;45.710;9.590;2022-10-22T07:25:42;14.98;;;8.82;;
72949;SDS011;62720;45.710;9.590;2022-10-22T07:28:07;17.17;;;10.70;;
72949;SDS011;62720;45.710;9.590;2022-10-22T07:30:33;20.30;;;10.60;;
72949;SDS011;62720;45.710;9.590;2022-10-22T07:32:58;17.85;;;9.45;;
72949;SDS011;62720;45.710;9.590;2022-10-22T07:35:24;17.63;;;10.13;;
72949;SDS011;62720;45.710;9.590;2022-10-22T07:37:49;15.10;;;9.57;;
72949;SDS011;62720;45.710;9.590;2022-10-22T07:40:14;14.17;;;9.50;;
72949;SDS011;62720;45.710;9.590;2022-10-22T07:42:39;14.85;;;9.63;;
72949;SDS011;62720;45.710;9.590;2022-10-22T07:45:05;16.93;;;9.63;;
72949;SDS011;62720;45.710;9.590;2022-10-22T07:47:30;19.10;;;10.20;;
72949;SDS011;62720;45.710;9.590;2022-10-22T07:49:55;15.97;;;9.97;;
72949;SDS011;62720;45.710;9.590;2022-10-22T07:52:21;17.43;;;10.60;;
72949;SDS011;62720;45.710;9.590;2022-10-22T07:54:46;22.97;;;10.77;;
72949;SDS011;62720;45.710;9.590;2022-10-22T07:57:11;18.40;;;9.90;;
72949;SDS011;62720;45.710;9.590;2022-10-22T07:59:36;16.42;;;10.50;;
72949;SDS011;62720;45.710;9.590;2022-10-22T08:02:01;17.73;;;11.47;;
72949;SDS011;62720;45.710;9.590;2022-10-22T08:04:27;17.73;;;9.40;;
72949;SDS011;62720;45.710;9.590;2022-10-22T08:06:52;17.90;;;10.40;;
72949;SDS011;62720;45.710;9.590;2022-10-22T08:09:17;17.17;;;10.00;;
72949;SDS011;62720;45.710;9.590;2022-10-22T08:11:42;20.40;;;10.43;;
72949;SDS011;62720;45.710;9.590;2022-10-22T08:14:08;23.25;;;12.13;;
72949;SDS011;62720;45.710;9.590;2022-10-22T08:16:33;21.53;;;10.90;;
72949;SDS011;62720;45.710;9.590;2022-10-22T08:18:58;24.13;;;11.68;;
72949;SDS011;62720;45.710;9.590;2022-10-22T08:21:23;20.23;;;12.30;;
72949;SDS011;62720;45.710;9.590;2022-10-22T08:23:49;19.83;;;11.48;;
72949;SDS011;62720;45.710;9.590;2022-10-22T08:26:14;23.87;;;12.73;;
72949;SDS011;62720;45.710;9.590;2022-10-22T08:28:39;21.40;;;11.47;;
72949;SDS011;62720;45.710;9.590;2022-10-22T08:31:05;20.80;;;11.82;;
72949;SDS011;62720;45.710;9.590;2022-10-22T08:33:31;21.05;;;12.82;;
72949;SDS011;62720;45.710;9.590;2022-10-22T08:35:56;24.35;;;12.30;;
72949;SDS011;62720;45.710;9.590;2022-10-22T08:38:22;19.90;;;11.70;;
72949;SDS011;62720;45.710;9.590;2022-10-22T08:40:54;27.43;;;13.77;;
72949;SDS011;62720;45.710;9.590;2022-10-22T08:45:56;18.02;;;11.18;;
72949;SDS011;62720;45.710;9.590;2022-10-22T08:51:02;21.83;;;12.60;;
72949;SDS011;62720;45.710;9.590;2022-10-22T08:53:38;21.95;;;12.82;;
72949;SDS011;62720;45.710;9.590;2022-10-22T08:56:05;21.05;;;11.98;;
72949;SDS011;62720;45.710;9.590;2022-10-22T08:58:34;23.27;;;12.90;;
72949;SDS011;62720;45.710;9.590;2022-10-22T09:01:06;20.83;;;13.05;;
72949;SDS011;62720;45.710;9.590;2022-10-22T09:03:42;24.80;;;13.05;;
72949;SDS011;62720;45.710;9.590;2022-10-22T09:08:35;36.35;;;23.58;;
72949;SDS011;62720;45.710;9.590;2022-10-22T09:11:03;80.90;;;46.67;;
72949;SDS011;62720;45.710;9.590;2022-10-22T09:13:30;90.20;;;53.33;;
72949;SDS011;62720;45.710;9.590;2022-10-22T09:15:59;96.97;;;57.17;;
72949;SDS011;62720;45.710;9.590;2022-10-22T09:21:02;82.78;;;49.35;;
72949;SDS011;62720;45.710;9.590;2022-10-22T09:23:37;70.75;;;42.60;;
72949;SDS011;62720;45.710;9.590;2022-10-22T09:26:08;53.67;;;32.60;;
72949;SDS011;62720;45.710;9.590;2022-10-22T09:28:36;46.80;;;25.45;;
72949;SDS011;62720;45.710;9.590;2022-10-22T09:31:01;50.93;;;28.73;;
72949;SDS011;62720;45.710;9.590;2022-10-22T09:33:27;46.57;;;26.73;;
72949;SDS011;62720;45.710;9.590;2022-10-22T09:35:54;46.45;;;24.33;;
72949;SDS011;62720;45.710;9.590;2022-10-22T09:38:20;45.72;;;24.90;;
72949;SDS011;62720;45.710;9.590;2022-10-22T09:40:48;44.88;;;24.77;;
72949;SDS011;62720;45.710;9.590;2022-10-22T09:43:14;41.65;;;24.35;;
72949;SDS011;62720;45.710;9.590;2022-10-22T09:45:40;41.78;;;22.60;;
72949;SDS011;62720;45.710;9.590;2022-10-22T09:48:22;34.38;;;19.08;;
72949;SDS011;62720;45.710;9.590;2022-10-22T09:51:35;36.25;;;18.63;;
72949;SDS011;62720;45.710;9.590;2022-10-22T09:53:41;28.48;;;15.00;;
72949;SDS011;62720;45.710;9.590;2022-10-22T09:56:17;28.75;;;14.40;;
72949;SDS011;62720;45.710;9.590;2022-10-22T09:58:45;26.27;;;15.15;;
72949;SDS011;62720;45.710;9.590;2022-10-22T10:01:46;26.10;;;14.30;;
72949;SDS011;62720;45.710;9.590;2022-10-22T10:04:06;24.83;;;12.95;;
72949;SDS011;62720;45.710;9.590;2022-10-22T10:06:32;27.83;;;13.25;;
72949;SDS011;62720;45.710;9.590;2022-10-22T10:08:57;30.92;;;13.60;;
72949;SDS011;62720;45.710;9.590;2022-10-22T10:11:27;21.27;;;11.60;;
72949;SDS011;62720;45.710;9.590;2022-10-22T10:14:00;18.83;;;11.70;;
72949;SDS011;62720;45.710;9.590;2022-10-22T10:16:38;23.77;;;13.05;;
72949;SDS011;62720;45.710;9.590;2022-10-22T10:24:47;25.33;;;13.50;;
72949;SDS011;62720;45.710;9.590;2022-10-22T10:27:01;23.30;;;11.98;;
72949;SDS011;62720;45.710;9.590;2022-10-22T10:29:41;20.65;;;11.63;;
72949;SDS011;62720;45.710;9.590;2022-10-22T10:35:02;21.20;;;10.50;;
72949;SDS011;62720;45.710;9.590;2022-10-22T10:37:38;18.63;;;10.27;;
72949;SDS011;62720;45.710;9.590;2022-10-22T10:42:36;19.77;;;11.00;;
72949;SDS011;62720;45.710;9.590;2022-10-22T10:50:11;15.10;;;9.05;;
72949;SDS011;62720;45.710;9.590;2022-10-22T10:52:43;16.48;;;9.38;;
72949;SDS011;62720;45.710;9.590;2022-10-22T11:00:10;27.10;;;7.97;;
72949;SDS011;62720;45.710;9.590;2022-10-22T11:05:38;61.10;;;9.20;;
72949;SDS011;62720;45.710;9.590;2022-10-22T11:13:16;18.40;;;6.47;;
72949;SDS011;62720;45.710;9.590;2022-10-22T11:15:45;16.63;;;6.90;;
72949;SDS011;62720;45.710;9.590;2022-10-22T11:18:17;19.13;;;9.90;;
72949;SDS011;62720;45.710;9.590;2022-10-22T11:23:33;28.85;;;13.52;;
72949;SDS011;62720;45.710;9.590;2022-10-22T11:26:00;16.95;;;9.10;;
72949;SDS011;62720;45.710;9.590;2022-10-22T11:28:27;14.98;;;8.65;;
72949;SDS011;62720;45.710;9.590;2022-10-22T11:30:57;16.27;;;8.25;;
72949;SDS011;62720;45.710;9.590;2022-10-22T11:33:25;15.57;;;8.30;;
72949;SDS011;62720;45.710;9.590;2022-10-22T11:35:52;14.13;;;7.88;;
72949;SDS011;62720;45.710;9.590;2022-10-22T11:38:21;9.50;;;5.20;;
72949;SDS011;62720;45.710;9.590;2022-10-22T11:41:00;10.10;;;4.75;;
72949;SDS011;62720;45.710;9.590;2022-10-22T11:43:28;9.07;;;4.60;;
72949;SDS011;62720;45.710;9.590;2022-10-22T11:46:02;8.25;;;4.45;;
72949;SDS011;62720;45.710;9.590;2022-10-22T11:48:36;8.00;;;3.72;;
72949;SDS011;62720;45.710;9.590;2022-10-22T11:51:01;8.90;;;3.33;;
72949;SDS011;62720;45.710;9.590;2022-10-22T11:53:31;9.48;;;3.33;;
72949;SDS011;62720;45.710;9.590;2022-10-22T11:55:57;15.70;;;7.07;;
72949;SDS011;62720;45.710;9.590;2022-10-22T12:00:52;10.83;;;5.03;;
72949;SDS011;62720;45.710;9.590;2022-10-22T12:03:22;9.88;;;4.43;;
72949;SDS011;62720;45.710;9.590;2022-10-22T12:06:01;15.70;;;4.20;;
72949;SDS011;62720;45.710;9.590;2022-10-22T12:08:26;9.15;;;4.15;;
72949;SDS011;62720;45.710;9.590;2022-10-22T12:17:09;10.50;;;5.00;;
72949;SDS011;62720;45.710;9.590;2022-10-22T12:19:12;11.48;;;4.30;;
72949;SDS011;62720;45.710;9.590;2022-10-22T12:21:38;8.07;;;3.58;;
72949;SDS011;62720;45.710;9.590;2022-10-22T12:24:04;9.02;;;3.65;;
72949;SDS011;62720;45.710;9.590;2022-10-22T12:26:30;8.52;;;3.95;;
72949;SDS011;62720;45.710;9.590;2022-10-22T12:31:23;6.00;;;2.80;;
72949;SDS011;62720;45.710;9.590;2022-10-22T12:33:55;8.37;;;2.83;;
72949;SDS011;62720;45.710;9.590;2022-10-22T12:36:21;6.85;;;2.58;;
72949;SDS011;62720;45.710;9.590;2022-10-22T12:38:46;12.20;;;1.95;;
72949;SDS011;62720;45.710;9.590;2022-10-22T12:41:12;9.45;;;2.15;;
72949;SDS011;62720;45.710;9.590;2022-10-22T12:43:38;9.80;;;2.33;;
72949;SDS011;62720;45.710;9.590;2022-10-22T12:46:03;9.68;;;2.38;;
72949;SDS011;62720;45.710;9.590;2022-10-22T12:48:30;6.53;;;2.22;;
72949;SDS011;62720;45.710;9.590;2022-10-22T12:50:59;9.27;;;2.83;;
72949;SDS011;62720;45.710;9.590;2022-10-22T12:55:54;6.78;;;2.20;;
72949;SDS011;62720;45.710;9.590;2022-10-22T12:58:27;5.90;;;2.30;;
72949;SDS011;62720;45.710;9.590;2022-10-22T13:00:54;5.90;;;2.40;;
72949;SDS011;62720;45.710;9.590;2022-10-22T13:04:04;7.88;;;2.83;;
72949;SDS011;62720;45.710;9.590;2022-10-22T13:08:42;6.85;;;1.98;;
72949;SDS011;62720;45.710;9.590;2022-10-22T13:11:08;7.10;;;2.47;;
72949;SDS011;62720;45.710;9.590;2022-10-22T13:13:43;7.13;;;1.75;;
72949;SDS011;62720;45.710;9.590;2022-10-22T13:18:37;8.45;;;2.65;;
72949;SDS011;62720;45.710;9.590;2022-10-22T13:21:03;7.38;;;2.65;;
72949;SDS011;62720;45.710;9.590;2022-10-22T13:23:30;10.85;;;3.40;;
72949;SDS011;62720;45.710;9.590;2022-10-22T13:26:03;8.20;;;3.67;;
72949;SDS011;62720;45.710;9.590;2022-10-22T13:28:34;10.20;;;4.43;;
72949;SDS011;62720;45.710;9.590;2022-10-22T13:31:16;8.17;;;3.87;;
72949;SDS011;62720;45.710;9.590;2022-10-22T13:33:42;10.45;;;5.03;;
72949;SDS011;62720;45.710;9.590;2022-10-22T13:36:10;10.48;;;4.50;;
72949;SDS011;62720;45.710;9.590;2022-10-22T13:38:36;12.38;;;5.28;;
72949;SDS011;62720;45.710;9.590;2022-10-22T13:41:04;12.02;;;4.85;;
72949;SDS011;62720;45.710;9.590;2022-10-22T13:43:29;11.02;;;4.20;;
72949;SDS011;62720;45.710;9.590;2022-10-22T13:45:56;8.88;;;3.67;;
72949;SDS011;62720;45.710;9.590;2022-10-22T13:48:24;9.60;;;3.70;;
72949;SDS011;62720;45.710;9.590;2022-10-22T13:50:50;8.15;;;3.90;;
72949;SDS011;62720;45.710;9.590;2022-10-22T13:53:25;7.45;;;3.40;;
72949;SDS011;62720;45.710;9.590;2022-10-22T13:55:52;26.85;;;4.88;;
72949;SDS011;62720;45.710;9.590;2022-10-22T13:58:20;13.18;;;4.22;;
72949;SDS011;62720;45.710;9.590;2022-10-22T14:00:48;12.27;;;4.38;;
72949;SDS011;62720;45.710;9.590;2022-10-22T14:03:15;12.60;;;4.65;;
72949;SDS011;62720;45.710;9.590;2022-10-22T14:05:41;13.73;;;4.55;;
72949;SDS011;62720;45.710;9.590;2022-10-22T14:08:13;15.27;;;5.00;;
72949;SDS011;62720;45.710;9.590;2022-10-22T14:10:39;14.30;;;4.90;;
72949;SDS011;62720;45.710;9.590;2022-10-22T14:13:11;11.75;;;4.88;;
72949;SDS011;62720;45.710;9.590;2022-10-22T14:40:08;15.00;;;5.28;;
72949;SDS011;62720;45.710;9.590;2022-10-22T14:42:38;11.77;;;4.88;;
72949;SDS011;62720;45.710;9.590;2022-10-22T14:45:04;11.38;;;4.78;;
72949;SDS011;62720;45.710;9.590;2022-10-22T14:47:30;11.52;;;4.43;;
72949;SDS011;62720;45.710;9.590;2022-10-22T14:49:57;11.30;;;4.25;;
72949;SDS011;62720;45.710;9.590;2022-10-22T14:52:28;12.02;;;4.32;;
72949;SDS011;62720;45.710;9.590;2022-10-22T14:54:57;11.00;;;4.53;;
72949;SDS011;62720;45.710;9.590;2022-10-22T14:57:22;10.57;;;3.97;;
72949;SDS011;62720;45.710;9.590;2022-10-22T14:59:48;11.38;;;4.97;;
72949;SDS011;62720;45.710;9.590;2022-10-22T15:02:14;9.20;;;4.10;;
72949;SDS011;62720;45.710;9.590;2022-10-22T15:04:46;10.93;;;4.00;;
72949;SDS011;62720;45.710;9.590;2022-10-22T15:07:16;10.75;;;3.85;;
72949;SDS011;62720;45.710;9.590;2022-10-22T15:09:42;11.45;;;5.28;;
72949;SDS011;62720;45.710;9.590;2022-10-22T15:12:07;13.75;;;5.50;;
72949;SDS011;62720;45.710;9.590;2022-10-22T15:14:32;11.82;;;4.93;;
72949;SDS011;62720;45.710;9.590;2022-10-22T15:16:58;13.65;;;5.30;;
72949;SDS011;62720;45.710;9.590;2022-10-22T15:19:23;10.07;;;4.50;;
72949;SDS011;62720;45.710;9.590;2022-10-22T15:21:49;11.63;;;4.82;;
72949;SDS011;62720;45.710;9.590;2022-10-22T15:24:14;12.32;;;4.55;;
72949;SDS011;62720;45.710;9.590;2022-10-22T15:26:40;12.07;;;5.03;;
72949;SDS011;62720;45.710;9.590;2022-10-22T15:29:05;12.00;;;4.85;;
72949;SDS011;62720;45.710;9.590;2022-10-22T15:31:41;13.63;;;5.40;;
72949;SDS011;62720;45.710;9.590;2022-10-22T15:34:06;11.82;;;4.60;;
72949;SDS011;62720;45.710;9.590;2022-10-22T15:36:32;10.07;;;4.90;;
72949;SDS011;62720;45.710;9.590;2022-10-22T15:38:57;9.35;;;4.00;;
72949;SDS011;62720;45.710;9.590;2022-10-22T15:41:23;10.02;;;4.80;;
72949;SDS011;62720;45.710;9.590;2022-10-22T15:43:49;8.13;;;4.13;;
72949;SDS011;62720;45.710;9.590;2022-10-22T15:46:16;11.40;;;4.68;;
72949;SDS011;62720;45.710;9.590;2022-10-22T15:48:45;12.52;;;5.03;;
72949;SDS011;62720;45.710;9.590;2022-10-22T15:51:16;14.85;;;5.32;;
72949;SDS011;62720;45.710;9.590;2022-10-22T15:53:42;14.52;;;5.15;;
72949;SDS011;62720;45.710;9.590;2022-10-22T15:56:09;12.40;;;5.25;;
72949;SDS011;62720;45.710;9.590;2022-10-22T15:58:41;15.55;;;6.65;;
72949;SDS011;62720;45.710;9.590;2022-10-22T16:01:45;11.52;;;5.45;;
72949;SDS011;62720;45.710;9.590;2022-10-22T16:04:11;11.20;;;5.22;;
72949;SDS011;62720;45.710;9.590;2022-10-22T16:06:38;13.18;;;5.35;;
72949;SDS011;62720;45.710;9.590;2022-10-22T16:09:06;14.50;;;5.88;;
72949;SDS011;62720;45.710;9.590;2022-10-22T16:11:33;12.73;;;5.15;;
72949;SDS011;62720;45.710;9.590;2022-10-22T16:13:58;11.13;;;5.30;;
72949;SDS011;62720;45.710;9.590;2022-10-22T16:16:29;12.00;;;5.65;;
72949;SDS011;62720;45.710;9.590;2022-10-22T16:18:58;11.55;;;5.32;;
72949;SDS011;62720;45.710;9.590;2022-10-22T16:21:23;13.18;;;6.15;;
72949;SDS011;62720;45.710;9.590;2022-10-22T16:23:49;17.50;;;6.22;;